LIPY/AOI METAR and TAF weather

Enter ICAO airport designator
Station Type Date Time Source
LIPY METAR 2021/08/02 02:20 UTC NOAA

LIPY 020220Z AUTO 22008KT 9999 NCD 21/10 Q1010


Station Type Date Time Source
LIPY Decoded METAR 2021/08/02 02:20 UTC NOAA

Falconara, Italy (LIPY) 43-37N 013-22E 10M
Aug 01, 2021 - 10:20 PM EDT / 2021.08.02 0220 UTC
Wind: from the SW (220 degrees) at 9 MPH (8 KT):0
Visibility: greater than 7 mile(s):0
Temperature: 69 F (21 C)
Dew Point: 50 F (10 C)
Relative Humidity: 49%
Pressure (altimeter): 29.83 in. Hg (1010 hPa)
ob: LIPY 020220Z AUTO 22008KT 9999 NCD 21/10 Q1010
cycle: 2

Station Type Date Time Source
LIPY TAF 2021/08/01 18:22 UTC NOAA

TAF LIPY 011700Z 0118/0218 24013KT 9999 FEW050
TEMPO 0118/0121 24018G30KT
BECMG 0121/0123 VRB05KT
BECMG 0209/0211 05010KT

Example: see airport list